createdAt,value
2023-03-31T00:02:13.795Z,17.80
2023-03-31T00:04:46.687Z,16.40
2023-03-31T00:07:14.950Z,18.40
2023-03-31T00:09:46.279Z,16.10
2023-03-31T00:12:14.784Z,18.30
2023-03-31T00:14:43.019Z,16.20
2023-03-31T00:17:11.699Z,16.80
2023-03-31T00:19:42.430Z,17.60
2023-03-31T00:22:10.656Z,18.30
2023-03-31T00:24:38.570Z,18.70
2023-03-31T00:27:07.775Z,16.80
2023-03-31T00:29:36.067Z,17.70
2023-03-31T00:32:06.420Z,17.20
2023-03-31T00:34:34.858Z,17.30
2023-03-31T00:37:04.394Z,17.00
2023-03-31T00:39:33.989Z,16.30
2023-03-31T00:42:03.760Z,18.70
2023-03-31T00:44:34.483Z,18.60
2023-03-31T00:47:02.517Z,18.10
2023-03-31T00:49:49.445Z,18.70
2023-03-31T00:52:37.866Z,18.40
2023-03-31T00:55:09.386Z,19.30
2023-03-31T00:57:39.653Z,21.00
2023-03-31T01:00:18.646Z,19.50
2023-03-31T01:03:06.898Z,18.60
2023-03-31T01:05:38.353Z,19.40
2023-03-31T01:08:07.037Z,17.70
2023-03-31T01:10:41.765Z,17.70
2023-03-31T01:13:10.288Z,17.70
2023-03-31T01:15:38.341Z,22.10
2023-03-31T01:18:06.732Z,20.60
2023-03-31T01:20:37.821Z,19.80
2023-03-31T01:23:28.839Z,20.00
2023-03-31T01:26:02.689Z,22.10
2023-03-31T01:28:30.944Z,22.00
2023-03-31T01:30:58.956Z,20.90
2023-03-31T01:33:33.813Z,18.80
2023-03-31T01:36:04.982Z,20.10
2023-03-31T01:38:52.776Z,18.20
2023-03-31T01:41:22.739Z,19.30
2023-03-31T01:43:53.545Z,17.90
2023-03-31T01:46:29.249Z,19.00
2023-03-31T01:49:02.049Z,19.30
2023-03-31T01:51:54.033Z,19.80
2023-03-31T01:54:42.393Z,19.90
2023-03-31T01:57:23.123Z,19.50
2023-03-31T02:00:03.270Z,19.30
2023-03-31T02:03:18.200Z,20.40
2023-03-31T02:05:52.484Z,19.50
2023-03-31T02:08:21.832Z,19.00
2023-03-31T02:10:50.017Z,19.20
2023-03-31T02:13:19.447Z,19.20
2023-03-31T02:15:48.270Z,19.00
2023-03-31T02:18:17.340Z,18.60
2023-03-31T02:20:46.882Z,18.60
2023-03-31T02:23:15.633Z,19.90
2023-03-31T02:25:48.165Z,21.80
2023-03-31T02:28:24.096Z,20.30
2023-03-31T02:31:07.358Z,19.70
2023-03-31T02:33:35.817Z,20.80
2023-03-31T02:36:06.395Z,19.30
2023-03-31T02:38:36.639Z,18.70
2023-03-31T02:41:07.494Z,19.60
2023-03-31T02:43:35.520Z,18.40
2023-03-31T02:46:03.685Z,18.60
2023-03-31T02:48:39.106Z,19.50
2023-03-31T02:51:08.894Z,19.10
2023-03-31T02:53:50.355Z,20.50
2023-03-31T02:56:37.286Z,20.60
2023-03-31T02:59:24.403Z,19.10
2023-03-31T03:01:56.093Z,20.50
2023-03-31T03:07:03.714Z,20.40
2023-03-31T03:09:34.818Z,19.50
2023-03-31T03:12:08.434Z,18.70
2023-03-31T03:14:48.405Z,19.30
2023-03-31T03:17:21.281Z,19.10
2023-03-31T03:19:56.271Z,16.50
2023-03-31T03:22:24.229Z,17.60
2023-03-31T03:24:53.684Z,18.80
2023-03-31T03:27:24.340Z,18.80
2023-03-31T03:29:52.277Z,20.80
2023-03-31T03:32:20.759Z,21.50
2023-03-31T03:34:50.424Z,22.50
2023-03-31T03:37:18.354Z,22.30
2023-03-31T03:39:47.572Z,21.20
2023-03-31T03:42:15.730Z,21.20
2023-03-31T03:44:44.664Z,20.50
2023-03-31T03:47:18.163Z,18.80
2023-03-31T03:49:49.431Z,18.80
2023-03-31T03:52:51.894Z,18.70
2023-03-31T03:59:10.949Z,19.80
2023-03-31T04:01:39.112Z,19.50
2023-03-31T04:04:08.199Z,20.20
2023-03-31T04:06:36.354Z,19.70
2023-03-31T04:09:04.285Z,19.00
2023-03-31T04:11:32.824Z,17.80
2023-03-31T04:14:01.314Z,17.40
2023-03-31T04:16:30.934Z,17.50
2023-03-31T04:18:59.144Z,17.40
2023-03-31T04:21:27.067Z,17.10
2023-03-31T04:24:04.955Z,17.50
2023-03-31T04:26:43.178Z,17.80
2023-03-31T04:29:12.989Z,17.70
2023-03-31T04:31:45.574Z,17.70
2023-03-31T04:34:14.387Z,17.90
2023-03-31T04:36:47.539Z,18.40
2023-03-31T04:39:16.354Z,19.30
2023-03-31T04:41:46.534Z,18.60
2023-03-31T04:44:14.653Z,17.90
2023-03-31T04:46:45.707Z,18.10
2023-03-31T04:49:18.090Z,18.10
2023-03-31T04:51:46.327Z,16.90
2023-03-31T04:54:16.493Z,17.90
2023-03-31T04:56:45.240Z,17.20
2023-03-31T04:59:13.238Z,18.20
2023-03-31T05:01:45.771Z,18.30
2023-03-31T05:04:14.075Z,17.60
2023-03-31T05:06:42.877Z,17.50
2023-03-31T05:09:10.926Z,17.90
2023-03-31T05:11:39.237Z,16.70
2023-03-31T05:14:07.539Z,16.00
2023-03-31T05:16:38.772Z,15.90
2023-03-31T05:19:07.273Z,16.00
2023-03-31T05:21:35.626Z,16.90
2023-03-31T05:24:04.806Z,19.10
2023-03-31T05:26:32.794Z,18.10
2023-03-31T05:29:01.430Z,18.40
2023-03-31T05:31:29.749Z,18.80
2023-03-31T05:33:57.751Z,18.70
2023-03-31T05:36:27.315Z,19.70
2023-03-31T05:38:55.784Z,20.30
2023-03-31T05:41:23.775Z,17.60
2023-03-31T05:43:51.817Z,17.30
2023-03-31T05:46:20.121Z,17.00
2023-03-31T05:48:48.103Z,18.10
2023-03-31T05:51:16.101Z,17.90
2023-03-31T05:53:44.330Z,16.50
2023-03-31T05:56:12.343Z,16.50
2023-03-31T05:58:40.638Z,18.50
2023-03-31T06:01:11.916Z,15.70
2023-03-31T06:03:41.682Z,14.30
2023-03-31T06:06:13.010Z,16.80
2023-03-31T06:08:47.948Z,15.40
2023-03-31T06:11:16.780Z,14.20
2023-03-31T06:13:45.082Z,13.80
2023-03-31T06:16:14.981Z,14.00
2023-03-31T06:18:44.259Z,14.80
2023-03-31T06:21:16.708Z,15.00
2023-03-31T06:23:46.573Z,13.20
2023-03-31T06:26:15.440Z,14.80
2023-03-31T06:28:44.209Z,14.70
2023-03-31T06:31:13.966Z,15.30
2023-03-31T06:33:44.441Z,14.60
2023-03-31T06:36:12.972Z,13.00
2023-03-31T06:38:41.568Z,12.80
2023-03-31T06:41:09.799Z,12.60
2023-03-31T06:43:38.988Z,13.70
2023-03-31T06:46:07.868Z,13.40
2023-03-31T06:48:37.122Z,11.70
2023-03-31T06:51:06.518Z,9.40
2023-03-31T06:53:34.819Z,8.30
2023-03-31T06:56:02.941Z,7.30
2023-03-31T06:58:31.760Z,7.80
2023-03-31T07:01:00.489Z,8.00
2023-03-31T07:03:33.574Z,7.80
2023-03-31T07:06:01.722Z,8.50
2023-03-31T07:08:29.922Z,7.60
2023-03-31T07:10:59.183Z,7.50
2023-03-31T07:13:29.051Z,17.10
2023-03-31T07:15:57.174Z,7.80
2023-03-31T07:18:26.429Z,8.40
2023-03-31T07:20:54.631Z,7.90
2023-03-31T07:23:23.066Z,8.50
2023-03-31T07:25:52.872Z,9.10
2023-03-31T07:28:21.759Z,8.40
2023-03-31T07:30:49.769Z,8.50
2023-03-31T07:33:19.079Z,8.60
2023-03-31T07:35:51.703Z,7.90
2023-03-31T07:38:33.916Z,7.60
2023-03-31T07:41:09.183Z,8.50
2023-03-31T07:43:38.201Z,7.80
2023-03-31T07:46:07.837Z,8.00
2023-03-31T07:48:36.163Z,8.50
2023-03-31T07:51:06.883Z,8.60
2023-03-31T07:53:39.112Z,8.20
2023-03-31T07:56:09.512Z,8.90
2023-03-31T07:58:37.958Z,9.00
2023-03-31T08:01:06.312Z,9.00
2023-03-31T08:03:35.906Z,8.80
2023-03-31T08:06:04.026Z,9.20
2023-03-31T08:08:32.109Z,8.60
2023-03-31T08:11:02.112Z,10.40
2023-03-31T08:13:31.628Z,9.30
2023-03-31T08:15:59.658Z,8.50
2023-03-31T08:18:29.684Z,9.50
2023-03-31T08:20:57.664Z,8.80
2023-03-31T08:23:25.574Z,9.30
2023-03-31T08:25:54.256Z,9.10
2023-03-31T08:28:22.424Z,10.00
2023-03-31T08:30:50.980Z,8.90
2023-03-31T08:33:19.668Z,9.50
2023-03-31T08:35:47.755Z,9.20
2023-03-31T08:38:16.538Z,9.30
2023-03-31T08:40:44.553Z,9.80
2023-03-31T08:43:13.627Z,9.80
2023-03-31T08:45:42.062Z,9.40
2023-03-31T08:48:16.955Z,8.70
2023-03-31T08:50:47.012Z,9.10
2023-03-31T08:53:17.874Z,8.80
2023-03-31T08:55:49.180Z,8.80
2023-03-31T08:58:34.290Z,7.60
2023-03-31T09:01:05.469Z,8.20
2023-03-31T09:03:41.333Z,9.30
2023-03-31T09:06:16.776Z,11.40
2023-03-31T09:08:44.999Z,10.30
2023-03-31T09:11:27.409Z,9.80
2023-03-31T09:13:55.886Z,8.90
2023-03-31T09:16:27.789Z,8.20
2023-03-31T09:19:00.134Z,8.80
2023-03-31T09:21:35.505Z,8.50
2023-03-31T09:24:21.822Z,7.70
2023-03-31T09:26:57.380Z,7.90
2023-03-31T09:29:30.049Z,8.00
2023-03-31T09:32:16.929Z,7.70
2023-03-31T09:34:46.030Z,8.10
2023-03-31T09:37:13.944Z,8.00
2023-03-31T09:39:45.896Z,8.50
2023-03-31T09:42:13.790Z,7.70
2023-03-31T09:44:43.612Z,8.60
2023-03-31T09:47:25.820Z,8.20
2023-03-31T09:49:54.669Z,8.40
2023-03-31T09:52:32.412Z,7.90
2023-03-31T09:55:02.192Z,8.00
2023-03-31T09:57:34.463Z,7.80
2023-03-31T10:00:19.235Z,8.20
2023-03-31T10:02:49.333Z,8.60
2023-03-31T10:05:29.718Z,8.90
2023-03-31T10:08:12.619Z,10.30
2023-03-31T10:10:44.234Z,9.30
2023-03-31T10:13:13.847Z,10.30
2023-03-31T10:15:42.442Z,9.90
2023-03-31T10:18:14.070Z,9.90
2023-03-31T10:20:51.977Z,10.10
2023-03-31T10:23:27.977Z,12.10
2023-03-31T10:25:56.777Z,11.80
2023-03-31T10:28:24.712Z,12.60
2023-03-31T10:30:53.578Z,12.30
2023-03-31T10:33:26.167Z,11.60
2023-03-31T10:36:03.291Z,12.10
2023-03-31T10:38:32.152Z,11.50
2023-03-31T10:41:01.434Z,12.70
2023-03-31T10:43:30.619Z,12.30
2023-03-31T10:46:00.212Z,11.50
2023-03-31T10:48:32.372Z,11.60
2023-03-31T10:51:01.716Z,12.90
2023-03-31T10:53:30.557Z,11.50
2023-03-31T10:56:32.194Z,13.50
2023-03-31T10:59:18.853Z,13.60
2023-03-31T11:02:06.470Z,13.80
2023-03-31T11:04:48.094Z,11.50
2023-03-31T11:07:36.812Z,9.90
2023-03-31T11:10:20.788Z,12.10
2023-03-31T11:13:08.555Z,11.00
2023-03-31T11:15:57.037Z,11.30
2023-03-31T11:18:41.523Z,11.40
2023-03-31T11:21:15.244Z,10.20
2023-03-31T11:23:44.310Z,9.70
2023-03-31T11:26:17.840Z,10.20
2023-03-31T11:28:53.139Z,9.20
2023-03-31T11:31:32.569Z,9.50
2023-03-31T11:34:07.074Z,9.70
2023-03-31T11:36:57.476Z,10.00
2023-03-31T11:39:26.270Z,8.30
2023-03-31T11:42:01.419Z,9.30
2023-03-31T11:44:31.158Z,8.80
2023-03-31T11:47:02.592Z,8.60
2023-03-31T11:49:31.541Z,8.80
2023-03-31T11:52:27.630Z,8.70
2023-03-31T11:55:08.415Z,8.20
2023-03-31T11:58:01.358Z,8.00
2023-03-31T12:00:36.891Z,7.50
2023-03-31T12:03:25.186Z,8.00
2023-03-31T12:05:57.166Z,7.80
2023-03-31T12:08:25.412Z,8.30
2023-03-31T12:11:01.710Z,7.50
2023-03-31T12:13:48.181Z,8.80
2023-03-31T12:16:23.400Z,8.00
2023-03-31T12:18:54.837Z,8.10
2023-03-31T12:23:51.576Z,8.40
2023-03-31T12:26:28.741Z,8.50
2023-03-31T12:29:01.541Z,8.60
2023-03-31T12:31:30.599Z,8.20
2023-03-31T12:34:07.592Z,8.30
2023-03-31T12:36:39.654Z,8.40
2023-03-31T12:39:08.898Z,8.30
2023-03-31T12:41:55.772Z,7.70
2023-03-31T12:44:35.944Z,8.50
2023-03-31T12:47:08.594Z,8.80
2023-03-31T12:49:55.082Z,9.00
2023-03-31T12:52:24.839Z,8.30
2023-03-31T12:55:02.996Z,9.10
2023-03-31T12:57:33.065Z,8.40
2023-03-31T13:00:17.246Z,8.70
2023-03-31T13:02:45.790Z,8.70
2023-03-31T13:05:32.848Z,8.10
2023-03-31T13:08:01.629Z,7.50
2023-03-31T13:10:30.769Z,7.50
2023-03-31T13:12:58.772Z,7.90
2023-03-31T13:15:27.479Z,7.80
2023-03-31T13:18:05.711Z,7.70
2023-03-31T13:20:37.537Z,7.30
2023-03-31T13:23:12.350Z,7.70
2023-03-31T13:25:43.994Z,7.50
2023-03-31T13:28:13.906Z,8.10
2023-03-31T13:30:42.254Z,8.10
2023-03-31T13:33:11.477Z,8.10
2023-03-31T13:35:41.230Z,9.10
2023-03-31T13:38:24.284Z,8.20
2023-03-31T13:41:08.094Z,9.50
2023-03-31T13:43:59.492Z,8.40
2023-03-31T13:46:38.657Z,8.70
2023-03-31T13:49:09.471Z,8.20
2023-03-31T13:51:42.132Z,8.50
2023-03-31T13:54:19.348Z,9.80
2023-03-31T13:56:47.413Z,9.90
2023-03-31T13:59:30.604Z,10.30
2023-03-31T14:02:24.755Z,10.40
2023-03-31T14:04:56.097Z,10.30
2023-03-31T14:07:29.250Z,11.00
2023-03-31T14:09:59.600Z,9.70
2023-03-31T14:12:34.521Z,10.70
2023-03-31T14:15:05.106Z,10.70
2023-03-31T14:17:37.883Z,9.40
2023-03-31T14:20:10.794Z,10.10
2023-03-31T14:22:45.524Z,10.70
2023-03-31T14:25:32.467Z,10.60
2023-03-31T14:28:18.912Z,8.80
2023-03-31T14:30:53.746Z,8.70
2023-03-31T14:33:25.282Z,9.00
2023-03-31T14:35:53.694Z,9.70
2023-03-31T14:38:21.784Z,10.20
2023-03-31T14:40:50.497Z,10.50
2023-03-31T14:43:19.674Z,10.80
2023-03-31T14:46:11.139Z,9.90
2023-03-31T14:48:45.240Z,9.30
2023-03-31T14:51:26.637Z,9.40
2023-03-31T14:53:58.458Z,10.20
2023-03-31T14:56:31.749Z,9.10
2023-03-31T14:58:59.699Z,10.30
2023-03-31T15:01:34.612Z,11.30
2023-03-31T15:04:10.730Z,11.40
2023-03-31T15:06:41.920Z,11.20
2023-03-31T15:09:13.124Z,10.90
2023-03-31T15:11:41.055Z,10.20
2023-03-31T15:14:09.052Z,11.60
2023-03-31T15:16:42.316Z,12.80
2023-03-31T15:19:14.839Z,12.00
2023-03-31T15:21:42.889Z,13.80
2023-03-31T15:24:14.085Z,15.50
2023-03-31T15:38:25.652Z,13.10
2023-03-31T15:41:29.785Z,13.10
2023-03-31T15:44:03.858Z,12.90
2023-03-31T15:49:55.912Z,13.70
2023-03-31T15:52:28.665Z,12.30
2023-03-31T15:54:57.114Z,13.30
2023-03-31T15:57:31.617Z,15.10
2023-03-31T16:00:00.785Z,13.00
2023-03-31T16:02:39.137Z,12.80
2023-03-31T16:05:10.812Z,12.50
2023-03-31T16:07:48.556Z,11.30
2023-03-31T16:10:20.672Z,15.30
2023-03-31T16:12:50.119Z,19.40
2023-03-31T16:15:23.894Z,18.40
2023-03-31T16:17:54.661Z,19.90
2023-03-31T16:20:25.986Z,18.50
2023-03-31T16:22:55.556Z,16.00
2023-03-31T16:25:23.897Z,16.80
2023-03-31T16:27:54.101Z,15.10
2023-03-31T16:30:22.846Z,14.40
2023-03-31T16:33:02.279Z,14.40
2023-03-31T16:35:32.443Z,15.40
2023-03-31T16:38:09.981Z,17.50
2023-03-31T16:40:39.158Z,18.00
2023-03-31T16:43:14.473Z,20.20
2023-03-31T16:49:23.230Z,18.70
2023-03-31T16:51:53.945Z,15.30
2023-03-31T16:54:26.531Z,16.40
2023-03-31T16:56:58.692Z,17.80
2023-03-31T17:00:14.621Z,18.30
2023-03-31T17:02:47.730Z,16.20
2023-03-31T17:05:17.918Z,15.70
2023-03-31T17:07:46.027Z,15.20
2023-03-31T17:10:14.651Z,16.40
2023-03-31T17:12:43.921Z,18.50
2023-03-31T17:15:12.077Z,16.90
2023-03-31T17:17:41.653Z,21.50
2023-03-31T17:20:10.479Z,23.30
2023-03-31T17:22:38.572Z,26.00
2023-03-31T17:25:08.161Z,27.50
2023-03-31T17:27:36.564Z,22.90
2023-03-31T17:32:38.794Z,20.20
2023-03-31T17:35:07.070Z,18.40
2023-03-31T17:37:37.441Z,18.60
2023-03-31T17:40:06.165Z,18.20
2023-03-31T17:42:34.761Z,18.40
2023-03-31T17:45:02.938Z,18.10
2023-03-31T17:47:32.147Z,16.90
2023-03-31T17:50:04.332Z,16.00
2023-03-31T17:53:13.482Z,17.10
2023-03-31T17:59:24.112Z,16.90
2023-03-31T18:01:52.045Z,16.80
2023-03-31T18:04:20.860Z,17.90
2023-03-31T18:06:59.168Z,19.20
2023-03-31T18:09:30.398Z,18.90
2023-03-31T18:11:58.839Z,19.70
2023-03-31T18:14:27.835Z,19.40
2023-03-31T18:16:56.854Z,18.90
2023-03-31T18:19:28.255Z,17.70
2023-03-31T18:22:12.723Z,21.80
2023-03-31T18:24:41.600Z,22.70
2023-03-31T18:27:12.920Z,23.90
2023-03-31T18:29:41.288Z,23.50
2023-03-31T18:32:10.017Z,24.80
2023-03-31T18:34:38.458Z,24.70
2023-03-31T18:37:08.172Z,22.30
2023-03-31T18:39:36.891Z,22.20
2023-03-31T18:42:05.367Z,21.30
2023-03-31T18:44:35.469Z,22.60
2023-03-31T18:47:04.381Z,21.70
2023-03-31T18:49:32.693Z,22.80
2023-03-31T18:52:02.557Z,23.40
2023-03-31T18:54:30.653Z,20.60
2023-03-31T18:56:58.659Z,21.90
2023-03-31T18:59:27.046Z,21.00
2023-03-31T19:01:56.219Z,20.30
2023-03-31T19:04:24.310Z,21.20
2023-03-31T19:06:54.251Z,21.70
2023-03-31T19:09:26.096Z,21.20
2023-03-31T19:14:22.327Z,23.80
2023-03-31T19:16:59.630Z,26.50
2023-03-31T19:19:27.619Z,25.40
2023-03-31T19:21:56.446Z,25.90
2023-03-31T19:24:24.822Z,26.20
2023-03-31T19:26:54.203Z,23.70
2023-03-31T19:29:22.296Z,22.10
2023-03-31T19:31:55.094Z,23.80
2023-03-31T19:34:23.145Z,22.50
2023-03-31T19:36:51.616Z,23.80
2023-03-31T19:39:21.549Z,24.00
2023-03-31T19:41:49.592Z,24.50
2023-03-31T19:44:17.914Z,24.30
2023-03-31T19:46:48.235Z,21.70
2023-03-31T19:49:16.620Z,21.50
2023-03-31T19:51:46.189Z,20.50
2023-03-31T19:54:14.221Z,19.50
2023-03-31T19:56:43.624Z,19.00
2023-03-31T19:59:11.847Z,19.80
2023-03-31T20:01:41.302Z,21.90
2023-03-31T20:04:12.322Z,20.90
2023-03-31T20:06:40.874Z,21.30
2023-03-31T20:09:09.001Z,21.20
2023-03-31T20:11:40.172Z,23.00
2023-03-31T20:14:10.086Z,22.30
2023-03-31T20:16:38.394Z,23.60
2023-03-31T20:19:06.716Z,25.20
2023-03-31T20:21:35.443Z,24.50
2023-03-31T20:24:04.534Z,24.90
2023-03-31T20:26:33.014Z,26.30
2023-03-31T20:29:04.207Z,26.70
2023-03-31T20:34:01.355Z,27.20
2023-03-31T20:36:31.727Z,28.10
2023-03-31T20:38:59.985Z,26.10
2023-03-31T20:41:28.242Z,23.10
2023-03-31T20:43:56.299Z,24.60
2023-03-31T20:46:24.227Z,26.50
2023-03-31T20:48:53.618Z,23.60
2023-03-31T20:51:22.719Z,22.10
2023-03-31T20:53:51.384Z,22.50
2023-03-31T20:56:20.304Z,21.60
2023-03-31T20:58:48.386Z,20.50
2023-03-31T21:01:16.788Z,21.40
2023-03-31T21:03:51.104Z,21.20
2023-03-31T21:06:20.045Z,20.20
2023-03-31T21:08:51.162Z,21.70
2023-03-31T21:11:19.164Z,22.10
2023-03-31T21:13:48.815Z,24.00
2023-03-31T21:16:16.820Z,24.20
2023-03-31T21:18:45.036Z,22.80
2023-03-31T21:21:14.182Z,22.20
2023-03-31T21:23:42.299Z,22.30
2023-03-31T21:26:19.368Z,22.40
2023-03-31T21:28:56.833Z,20.20
2023-03-31T21:31:32.157Z,21.90
2023-03-31T21:34:05.210Z,22.20
2023-03-31T21:36:46.149Z,21.90
2023-03-31T21:39:17.680Z,21.80
2023-03-31T21:47:37.482Z,20.00
2023-03-31T21:50:14.963Z,22.40
2023-03-31T21:52:49.656Z,23.00
2023-03-31T21:55:21.753Z,22.30
2023-03-31T21:58:20.112Z,22.90
2023-03-31T22:01:09.848Z,23.60
2023-03-31T22:04:01.216Z,23.20
2023-03-31T22:06:50.081Z,22.50
2023-03-31T22:09:33.341Z,21.70
2023-03-31T22:12:38.240Z,21.50
2023-03-31T22:15:07.582Z,22.60
2023-03-31T22:17:35.774Z,21.10
2023-03-31T22:20:05.168Z,20.80
2023-03-31T22:22:33.444Z,20.40
2023-03-31T22:25:01.643Z,20.70
2023-03-31T22:27:30.067Z,19.90
2023-03-31T22:29:58.312Z,21.30
2023-03-31T22:32:26.789Z,19.90
2023-03-31T22:34:55.153Z,23.60
2023-03-31T22:37:24.033Z,23.10
2023-03-31T22:43:10.915Z,23.10
2023-03-31T22:45:39.138Z,21.80
2023-03-31T22:48:08.900Z,22.40
2023-03-31T22:53:55.465Z,22.90
2023-03-31T22:56:23.769Z,21.50
2023-03-31T22:58:51.910Z,21.50
2023-03-31T23:01:20.876Z,20.70
2023-03-31T23:03:50.145Z,21.80
2023-03-31T23:06:19.565Z,21.90
2023-03-31T23:08:49.377Z,23.30
2023-03-31T23:11:18.992Z,22.70
2023-03-31T23:13:49.882Z,22.90
2023-03-31T23:16:24.440Z,22.00
2023-03-31T23:18:53.473Z,23.00
2023-03-31T23:21:23.827Z,21.20
2023-03-31T23:23:53.920Z,20.70
2023-03-31T23:26:22.348Z,20.20
2023-03-31T23:28:51.714Z,19.80
2023-03-31T23:31:20.739Z,21.80
2023-03-31T23:33:49.075Z,21.00
2023-03-31T23:36:17.961Z,22.00
2023-03-31T23:52:36.111Z,19.10
2023-03-31T23:55:04.659Z,20.30
2023-03-31T23:57:32.820Z,19.00
